sensor_id;sensor_type;location;lat;lon;timestamp;P1;durP1;ratioP1;P2;durP2;ratioP2
21501;SDS011;27639;48.674;9.242;2023-05-07T00:01:23;6.20;;;4.10;;
21501;SDS011;27639;48.674;9.242;2023-05-07T00:03:49;7.18;;;4.05;;
21501;SDS011;27639;48.674;9.242;2023-05-07T00:06:14;6.55;;;3.90;;
21501;SDS011;27639;48.674;9.242;2023-05-07T00:08:40;5.63;;;3.90;;
21501;SDS011;27639;48.674;9.242;2023-05-07T00:11:05;6.15;;;3.80;;
21501;SDS011;27639;48.674;9.242;2023-05-07T00:13:31;6.22;;;3.60;;
21501;SDS011;27639;48.674;9.242;2023-05-07T00:16:00;6.18;;;4.10;;
21501;SDS011;27639;48.674;9.242;2023-05-07T00:18:29;7.43;;;4.15;;
21501;SDS011;27639;48.674;9.242;2023-05-07T00:20:55;6.18;;;4.22;;
21501;SDS011;27639;48.674;9.242;2023-05-07T00:23:21;5.82;;;4.15;;
21501;SDS011;27639;48.674;9.242;2023-05-07T00:25:47;6.10;;;3.80;;
21501;SDS011;27639;48.674;9.242;2023-05-07T00:28:12;5.60;;;4.50;;
21501;SDS011;27639;48.674;9.242;2023-05-07T00:30:38;6.38;;;3.78;;
21501;SDS011;27639;48.674;9.242;2023-05-07T00:33:04;5.55;;;3.80;;
21501;SDS011;27639;48.674;9.242;2023-05-07T00:35:29;5.55;;;3.65;;
21501;SDS011;27639;48.674;9.242;2023-05-07T00:37:55;6.07;;;3.50;;
21501;SDS011;27639;48.674;9.242;2023-05-07T00:40:21;6.93;;;4.10;;
21501;SDS011;27639;48.674;9.242;2023-05-07T00:42:47;6.82;;;4.32;;
21501;SDS011;27639;48.674;9.242;2023-05-07T00:45:14;7.90;;;4.78;;
21501;SDS011;27639;48.674;9.242;2023-05-07T00:47:40;6.97;;;4.18;;
21501;SDS011;27639;48.674;9.242;2023-05-07T00:50:06;6.18;;;4.45;;
21501;SDS011;27639;48.674;9.242;2023-05-07T00:52:34;8.25;;;4.63;;
21501;SDS011;27639;48.674;9.242;2023-05-07T00:55:02;7.18;;;4.78;;
21501;SDS011;27639;48.674;9.242;2023-05-07T00:57:32;8.88;;;4.65;;
21501;SDS011;27639;48.674;9.242;2023-05-07T01:00:01;8.88;;;5.75;;
21501;SDS011;27639;48.674;9.242;2023-05-07T01:02:28;7.65;;;4.75;;
21501;SDS011;27639;48.674;9.242;2023-05-07T01:04:54;7.03;;;4.30;;
21501;SDS011;27639;48.674;9.242;2023-05-07T01:07:20;6.25;;;4.07;;
21501;SDS011;27639;48.674;9.242;2023-05-07T01:09:47;7.00;;;4.22;;
21501;SDS011;27639;48.674;9.242;2023-05-07T01:12:13;6.15;;;3.78;;
21501;SDS011;27639;48.674;9.242;2023-05-07T01:14:38;6.10;;;4.82;;
21501;SDS011;27639;48.674;9.242;2023-05-07T01:17:04;5.25;;;3.92;;
21501;SDS011;27639;48.674;9.242;2023-05-07T01:19:30;5.13;;;3.72;;
21501;SDS011;27639;48.674;9.242;2023-05-07T01:21:57;6.18;;;4.03;;
21501;SDS011;27639;48.674;9.242;2023-05-07T01:24:28;6.22;;;3.88;;
21501;SDS011;27639;48.674;9.242;2023-05-07T01:26:55;5.20;;;3.92;;
21501;SDS011;27639;48.674;9.242;2023-05-07T01:29:20;5.97;;;3.95;;
21501;SDS011;27639;48.674;9.242;2023-05-07T01:31:46;7.70;;;4.00;;
21501;SDS011;27639;48.674;9.242;2023-05-07T01:34:14;6.20;;;3.90;;
21501;SDS011;27639;48.674;9.242;2023-05-07T01:36:42;7.05;;;3.95;;
21501;SDS011;27639;48.674;9.242;2023-05-07T01:39:09;6.25;;;3.78;;
21501;SDS011;27639;48.674;9.242;2023-05-07T01:41:35;4.97;;;3.55;;
21501;SDS011;27639;48.674;9.242;2023-05-07T01:44:01;5.75;;;3.80;;
21501;SDS011;27639;48.674;9.242;2023-05-07T01:46:29;7.60;;;3.75;;
21501;SDS011;27639;48.674;9.242;2023-05-07T01:48:55;5.07;;;3.80;;
21501;SDS011;27639;48.674;9.242;2023-05-07T01:51:21;5.22;;;4.00;;
21501;SDS011;27639;48.674;9.242;2023-05-07T01:53:47;5.75;;;3.58;;
21501;SDS011;27639;48.674;9.242;2023-05-07T01:56:16;5.03;;;3.53;;
21501;SDS011;27639;48.674;9.242;2023-05-07T01:58:43;5.40;;;4.15;;
21501;SDS011;27639;48.674;9.242;2023-05-07T02:01:10;5.75;;;3.78;;
21501;SDS011;27639;48.674;9.242;2023-05-07T02:03:36;6.03;;;3.63;;
21501;SDS011;27639;48.674;9.242;2023-05-07T02:06:01;4.80;;;3.53;;
21501;SDS011;27639;48.674;9.242;2023-05-07T02:08:27;5.82;;;3.45;;
21501;SDS011;27639;48.674;9.242;2023-05-07T02:10:53;5.05;;;3.90;;
21501;SDS011;27639;48.674;9.242;2023-05-07T02:13:18;5.30;;;3.95;;
21501;SDS011;27639;48.674;9.242;2023-05-07T02:15:45;7.38;;;3.72;;
21501;SDS011;27639;48.674;9.242;2023-05-07T02:18:14;6.35;;;3.80;;
21501;SDS011;27639;48.674;9.242;2023-05-07T02:20:40;5.93;;;4.28;;
21501;SDS011;27639;48.674;9.242;2023-05-07T02:23:06;5.35;;;3.97;;
21501;SDS011;27639;48.674;9.242;2023-05-07T02:25:31;6.10;;;4.07;;
21501;SDS011;27639;48.674;9.242;2023-05-07T02:27:57;5.95;;;4.05;;
21501;SDS011;27639;48.674;9.242;2023-05-07T02:30:23;5.70;;;4.03;;
21501;SDS011;27639;48.674;9.242;2023-05-07T02:32:50;5.47;;;4.03;;
21501;SDS011;27639;48.674;9.242;2023-05-07T02:35:15;5.45;;;4.07;;
21501;SDS011;27639;48.674;9.242;2023-05-07T02:37:41;5.15;;;4.05;;
21501;SDS011;27639;48.674;9.242;2023-05-07T02:40:07;5.25;;;3.58;;
21501;SDS011;27639;48.674;9.242;2023-05-07T02:42:33;6.53;;;3.97;;
21501;SDS011;27639;48.674;9.242;2023-05-07T02:44:58;6.22;;;3.70;;
21501;SDS011;27639;48.674;9.242;2023-05-07T02:47:24;5.13;;;3.60;;
21501;SDS011;27639;48.674;9.242;2023-05-07T02:49:51;4.60;;;3.08;;
21501;SDS011;27639;48.674;9.242;2023-05-07T02:52:18;5.72;;;3.80;;
21501;SDS011;27639;48.674;9.242;2023-05-07T02:54:43;6.75;;;3.80;;
21501;SDS011;27639;48.674;9.242;2023-05-07T02:57:09;6.55;;;3.67;;
21501;SDS011;27639;48.674;9.242;2023-05-07T02:59:35;5.90;;;3.58;;
21501;SDS011;27639;48.674;9.242;2023-05-07T03:02:00;5.78;;;3.65;;
21501;SDS011;27639;48.674;9.242;2023-05-07T03:04:26;4.60;;;3.22;;
21501;SDS011;27639;48.674;9.242;2023-05-07T03:06:51;5.18;;;3.40;;
21501;SDS011;27639;48.674;9.242;2023-05-07T03:09:17;5.45;;;3.72;;
21501;SDS011;27639;48.674;9.242;2023-05-07T03:11:43;6.45;;;3.83;;
21501;SDS011;27639;48.674;9.242;2023-05-07T03:14:08;5.25;;;3.72;;
21501;SDS011;27639;48.674;9.242;2023-05-07T03:16:34;5.28;;;3.78;;
21501;SDS011;27639;48.674;9.242;2023-05-07T03:18:59;5.53;;;3.70;;
21501;SDS011;27639;48.674;9.242;2023-05-07T03:21:25;7.28;;;3.78;;
21501;SDS011;27639;48.674;9.242;2023-05-07T03:23:51;5.85;;;4.18;;
21501;SDS011;27639;48.674;9.242;2023-05-07T03:26:17;6.03;;;3.75;;
21501;SDS011;27639;48.674;9.242;2023-05-07T03:28:42;5.05;;;3.60;;
21501;SDS011;27639;48.674;9.242;2023-05-07T03:31:08;5.55;;;4.00;;
21501;SDS011;27639;48.674;9.242;2023-05-07T03:33:34;6.78;;;3.78;;
21501;SDS011;27639;48.674;9.242;2023-05-07T03:36:02;5.80;;;3.58;;
21501;SDS011;27639;48.674;9.242;2023-05-07T03:38:27;6.03;;;3.67;;
21501;SDS011;27639;48.674;9.242;2023-05-07T03:40:53;6.63;;;3.50;;
21501;SDS011;27639;48.674;9.242;2023-05-07T03:43:19;5.18;;;3.58;;
21501;SDS011;27639;48.674;9.242;2023-05-07T03:45:44;7.05;;;3.80;;
21501;SDS011;27639;48.674;9.242;2023-05-07T03:48:10;4.95;;;3.35;;
21501;SDS011;27639;48.674;9.242;2023-05-07T03:50:35;5.13;;;3.33;;
21501;SDS011;27639;48.674;9.242;2023-05-07T03:53:01;5.25;;;3.40;;
21501;SDS011;27639;48.674;9.242;2023-05-07T03:55:26;5.82;;;3.40;;
21501;SDS011;27639;48.674;9.242;2023-05-07T03:57:52;6.88;;;3.97;;
21501;SDS011;27639;48.674;9.242;2023-05-07T04:00:18;5.55;;;3.60;;
21501;SDS011;27639;48.674;9.242;2023-05-07T04:02:45;6.88;;;3.65;;
21501;SDS011;27639;48.674;9.242;2023-05-07T04:05:10;4.90;;;3.45;;
21501;SDS011;27639;48.674;9.242;2023-05-07T04:07:37;5.32;;;3.80;;
21501;SDS011;27639;48.674;9.242;2023-05-07T04:10:02;7.85;;;3.90;;
21501;SDS011;27639;48.674;9.242;2023-05-07T04:12:28;4.97;;;3.65;;
21501;SDS011;27639;48.674;9.242;2023-05-07T04:14:53;5.72;;;3.63;;
21501;SDS011;27639;48.674;9.242;2023-05-07T04:17:19;6.82;;;3.80;;
21501;SDS011;27639;48.674;9.242;2023-05-07T04:19:45;4.55;;;3.15;;
21501;SDS011;27639;48.674;9.242;2023-05-07T04:22:11;4.22;;;3.25;;
21501;SDS011;27639;48.674;9.242;2023-05-07T04:24:37;5.53;;;3.50;;
21501;SDS011;27639;48.674;9.242;2023-05-07T04:27:03;4.78;;;3.38;;
21501;SDS011;27639;48.674;9.242;2023-05-07T04:29:28;4.60;;;3.05;;
21501;SDS011;27639;48.674;9.242;2023-05-07T04:31:54;4.53;;;3.17;;
21501;SDS011;27639;48.674;9.242;2023-05-07T04:34:21;5.53;;;3.17;;
21501;SDS011;27639;48.674;9.242;2023-05-07T04:36:47;7.68;;;3.47;;
21501;SDS011;27639;48.674;9.242;2023-05-07T04:39:13;6.05;;;2.78;;
21501;SDS011;27639;48.674;9.242;2023-05-07T04:41:38;6.97;;;3.65;;
21501;SDS011;27639;48.674;9.242;2023-05-07T04:44:04;4.78;;;3.13;;
21501;SDS011;27639;48.674;9.242;2023-05-07T04:46:30;5.22;;;3.30;;
21501;SDS011;27639;48.674;9.242;2023-05-07T04:48:56;6.32;;;3.40;;
21501;SDS011;27639;48.674;9.242;2023-05-07T04:51:22;5.90;;;3.50;;
21501;SDS011;27639;48.674;9.242;2023-05-07T04:53:48;5.00;;;3.20;;
21501;SDS011;27639;48.674;9.242;2023-05-07T04:56:14;5.35;;;3.20;;
21501;SDS011;27639;48.674;9.242;2023-05-07T04:58:39;5.45;;;3.15;;
21501;SDS011;27639;48.674;9.242;2023-05-07T05:01:05;6.63;;;3.30;;
21501;SDS011;27639;48.674;9.242;2023-05-07T05:03:31;9.05;;;3.20;;
21501;SDS011;27639;48.674;9.242;2023-05-07T05:05:56;4.47;;;3.13;;
21501;SDS011;27639;48.674;9.242;2023-05-07T05:08:24;4.50;;;3.00;;
21501;SDS011;27639;48.674;9.242;2023-05-07T05:10:50;5.15;;;3.70;;
21501;SDS011;27639;48.674;9.242;2023-05-07T05:13:15;4.15;;;3.00;;
21501;SDS011;27639;48.674;9.242;2023-05-07T05:15:41;4.75;;;3.03;;
21501;SDS011;27639;48.674;9.242;2023-05-07T05:18:07;4.15;;;2.92;;
21501;SDS011;27639;48.674;9.242;2023-05-07T05:20:32;5.25;;;2.67;;
21501;SDS011;27639;48.674;9.242;2023-05-07T05:22:58;4.55;;;2.70;;
21501;SDS011;27639;48.674;9.242;2023-05-07T05:25:23;4.38;;;2.90;;
21501;SDS011;27639;48.674;9.242;2023-05-07T05:27:49;4.13;;;2.35;;
21501;SDS011;27639;48.674;9.242;2023-05-07T05:30:15;5.35;;;2.90;;
21501;SDS011;27639;48.674;9.242;2023-05-07T05:32:40;6.20;;;2.58;;
21501;SDS011;27639;48.674;9.242;2023-05-07T05:35:06;4.15;;;2.55;;
21501;SDS011;27639;48.674;9.242;2023-05-07T05:37:32;4.22;;;2.58;;
21501;SDS011;27639;48.674;9.242;2023-05-07T05:39:57;3.80;;;2.63;;
21501;SDS011;27639;48.674;9.242;2023-05-07T05:42:23;4.20;;;2.80;;
21501;SDS011;27639;48.674;9.242;2023-05-07T05:44:49;4.78;;;2.65;;
21501;SDS011;27639;48.674;9.242;2023-05-07T05:47:14;4.25;;;2.88;;
21501;SDS011;27639;48.674;9.242;2023-05-07T05:49:40;4.18;;;3.15;;
21501;SDS011;27639;48.674;9.242;2023-05-07T05:52:05;5.10;;;2.78;;
21501;SDS011;27639;48.674;9.242;2023-05-07T05:54:31;4.63;;;2.45;;
21501;SDS011;27639;48.674;9.242;2023-05-07T05:56:56;4.95;;;2.75;;
21501;SDS011;27639;48.674;9.242;2023-05-07T05:59:22;3.80;;;2.38;;
21501;SDS011;27639;48.674;9.242;2023-05-07T06:01:48;4.57;;;2.67;;
21501;SDS011;27639;48.674;9.242;2023-05-07T06:04:14;5.40;;;2.75;;
21501;SDS011;27639;48.674;9.242;2023-05-07T06:06:39;4.50;;;2.45;;
21501;SDS011;27639;48.674;9.242;2023-05-07T06:09:05;3.67;;;2.67;;
21501;SDS011;27639;48.674;9.242;2023-05-07T06:11:31;5.30;;;2.83;;
21501;SDS011;27639;48.674;9.242;2023-05-07T06:13:57;4.60;;;2.70;;
21501;SDS011;27639;48.674;9.242;2023-05-07T06:16:24;4.57;;;2.90;;
21501;SDS011;27639;48.674;9.242;2023-05-07T06:18:50;4.20;;;3.00;;
21501;SDS011;27639;48.674;9.242;2023-05-07T06:21:15;8.63;;;3.25;;
21501;SDS011;27639;48.674;9.242;2023-05-07T06:23:41;4.10;;;3.20;;
21501;SDS011;27639;48.674;9.242;2023-05-07T06:26:07;4.28;;;3.10;;
21501;SDS011;27639;48.674;9.242;2023-05-07T06:28:32;5.05;;;3.30;;
21501;SDS011;27639;48.674;9.242;2023-05-07T06:31:16;5.25;;;3.20;;
21501;SDS011;27639;48.674;9.242;2023-05-07T06:33:45;4.72;;;3.30;;
21501;SDS011;27639;48.674;9.242;2023-05-07T06:36:11;5.03;;;3.60;;
21501;SDS011;27639;48.674;9.242;2023-05-07T06:38:37;4.47;;;3.28;;
21501;SDS011;27639;48.674;9.242;2023-05-07T06:41:02;4.82;;;3.58;;
21501;SDS011;27639;48.674;9.242;2023-05-07T06:43:28;5.03;;;3.80;;
21501;SDS011;27639;48.674;9.242;2023-05-07T06:45:53;4.45;;;3.42;;
21501;SDS011;27639;48.674;9.242;2023-05-07T06:48:19;4.85;;;3.58;;
21501;SDS011;27639;48.674;9.242;2023-05-07T06:50:45;5.97;;;3.28;;
21501;SDS011;27639;48.674;9.242;2023-05-07T06:53:10;4.78;;;3.22;;
21501;SDS011;27639;48.674;9.242;2023-05-07T06:55:36;6.35;;;3.53;;
21501;SDS011;27639;48.674;9.242;2023-05-07T06:58:03;5.07;;;3.85;;
21501;SDS011;27639;48.674;9.242;2023-05-07T07:00:28;5.25;;;3.65;;
21501;SDS011;27639;48.674;9.242;2023-05-07T07:02:55;4.90;;;3.65;;
21501;SDS011;27639;48.674;9.242;2023-05-07T07:05:20;4.45;;;3.72;;
21501;SDS011;27639;48.674;9.242;2023-05-07T07:07:46;5.32;;;3.42;;
21501;SDS011;27639;48.674;9.242;2023-05-07T07:10:20;3.75;;;2.97;;
21501;SDS011;27639;48.674;9.242;2023-05-07T07:12:49;6.40;;;3.53;;
21501;SDS011;27639;48.674;9.242;2023-05-07T07:15:15;5.85;;;3.97;;
21501;SDS011;27639;48.674;9.242;2023-05-07T07:17:41;6.63;;;3.80;;
21501;SDS011;27639;48.674;9.242;2023-05-07T07:20:07;6.05;;;3.47;;
21501;SDS011;27639;48.674;9.242;2023-05-07T07:22:33;5.05;;;3.72;;
21501;SDS011;27639;48.674;9.242;2023-05-07T07:24:58;6.65;;;3.85;;
21501;SDS011;27639;48.674;9.242;2023-05-07T07:27:24;5.15;;;3.90;;
21501;SDS011;27639;48.674;9.242;2023-05-07T07:29:50;5.70;;;4.07;;
21501;SDS011;27639;48.674;9.242;2023-05-07T07:32:15;5.50;;;3.92;;
21501;SDS011;27639;48.674;9.242;2023-05-07T07:34:41;5.65;;;3.60;;
21501;SDS011;27639;48.674;9.242;2023-05-07T07:37:07;4.95;;;3.47;;
21501;SDS011;27639;48.674;9.242;2023-05-07T07:39:32;5.90;;;3.63;;
21501;SDS011;27639;48.674;9.242;2023-05-07T07:41:58;5.40;;;3.58;;
21501;SDS011;27639;48.674;9.242;2023-05-07T07:44:24;6.50;;;3.53;;
21501;SDS011;27639;48.674;9.242;2023-05-07T07:46:50;4.60;;;3.35;;
21501;SDS011;27639;48.674;9.242;2023-05-07T07:49:16;6.97;;;4.13;;
21501;SDS011;27639;48.674;9.242;2023-05-07T07:51:42;5.72;;;3.50;;
21501;SDS011;27639;48.674;9.242;2023-05-07T07:54:07;5.85;;;3.40;;
21501;SDS011;27639;48.674;9.242;2023-05-07T07:56:33;6.78;;;3.85;;
21501;SDS011;27639;48.674;9.242;2023-05-07T07:58:59;6.18;;;4.05;;
21501;SDS011;27639;48.674;9.242;2023-05-07T08:01:25;4.80;;;4.00;;
21501;SDS011;27639;48.674;9.242;2023-05-07T08:03:51;5.05;;;3.92;;
21501;SDS011;27639;48.674;9.242;2023-05-07T08:06:17;5.07;;;4.20;;
21501;SDS011;27639;48.674;9.242;2023-05-07T08:08:42;5.80;;;4.03;;
21501;SDS011;27639;48.674;9.242;2023-05-07T08:11:08;4.72;;;3.60;;
21501;SDS011;27639;48.674;9.242;2023-05-07T08:13:34;4.80;;;3.92;;
21501;SDS011;27639;48.674;9.242;2023-05-07T08:16:00;6.95;;;4.18;;
21501;SDS011;27639;48.674;9.242;2023-05-07T08:18:25;6.45;;;4.35;;
21501;SDS011;27639;48.674;9.242;2023-05-07T08:20:53;6.70;;;3.75;;
21501;SDS011;27639;48.674;9.242;2023-05-07T08:23:18;5.93;;;4.05;;
21501;SDS011;27639;48.674;9.242;2023-05-07T08:25:44;6.90;;;3.67;;
21501;SDS011;27639;48.674;9.242;2023-05-07T08:28:10;6.15;;;4.32;;
21501;SDS011;27639;48.674;9.242;2023-05-07T08:30:35;4.82;;;3.60;;
21501;SDS011;27639;48.674;9.242;2023-05-07T08:33:01;4.32;;;3.70;;
21501;SDS011;27639;48.674;9.242;2023-05-07T08:35:27;6.50;;;3.63;;
21501;SDS011;27639;48.674;9.242;2023-05-07T08:37:53;6.00;;;4.20;;
21501;SDS011;27639;48.674;9.242;2023-05-07T08:40:18;4.35;;;3.67;;
21501;SDS011;27639;48.674;9.242;2023-05-07T08:42:45;4.88;;;3.33;;
21501;SDS011;27639;48.674;9.242;2023-05-07T08:45:13;5.55;;;3.65;;
21501;SDS011;27639;48.674;9.242;2023-05-07T08:47:42;4.43;;;3.33;;
21501;SDS011;27639;48.674;9.242;2023-05-07T08:50:12;4.95;;;3.22;;
21501;SDS011;27639;48.674;9.242;2023-05-07T08:52:41;4.03;;;3.30;;
21501;SDS011;27639;48.674;9.242;2023-05-07T08:55:07;4.70;;;3.45;;
21501;SDS011;27639;48.674;9.242;2023-05-07T08:57:33;5.43;;;3.17;;
21501;SDS011;27639;48.674;9.242;2023-05-07T08:59:59;6.03;;;3.28;;
21501;SDS011;27639;48.674;9.242;2023-05-07T09:02:25;5.82;;;3.58;;
21501;SDS011;27639;48.674;9.242;2023-05-07T09:04:51;4.30;;;3.30;;
21501;SDS011;27639;48.674;9.242;2023-05-07T09:07:17;5.28;;;3.53;;
21501;SDS011;27639;48.674;9.242;2023-05-07T09:09:44;5.55;;;3.42;;
21501;SDS011;27639;48.674;9.242;2023-05-07T09:12:10;4.63;;;2.80;;
21501;SDS011;27639;48.674;9.242;2023-05-07T09:14:35;5.63;;;2.70;;
21501;SDS011;27639;48.674;9.242;2023-05-07T09:17:01;3.67;;;2.33;;
21501;SDS011;27639;48.674;9.242;2023-05-07T09:19:27;4.70;;;2.85;;
21501;SDS011;27639;48.674;9.242;2023-05-07T09:21:59;6.20;;;2.95;;
21501;SDS011;27639;48.674;9.242;2023-05-07T09:24:29;3.53;;;2.65;;
21501;SDS011;27639;48.674;9.242;2023-05-07T09:26:59;3.53;;;2.33;;
21501;SDS011;27639;48.674;9.242;2023-05-07T09:29:26;4.13;;;2.80;;
21501;SDS011;27639;48.674;9.242;2023-05-07T09:31:54;4.97;;;2.63;;
21501;SDS011;27639;48.674;9.242;2023-05-07T09:34:20;4.07;;;2.25;;
21501;SDS011;27639;48.674;9.242;2023-05-07T09:36:46;3.42;;;2.13;;
21501;SDS011;27639;48.674;9.242;2023-05-07T09:39:11;3.30;;;2.42;;
21501;SDS011;27639;48.674;9.242;2023-05-07T09:41:44;4.50;;;2.70;;
21501;SDS011;27639;48.674;9.242;2023-05-07T09:44:11;5.50;;;2.63;;
21501;SDS011;27639;48.674;9.242;2023-05-07T09:46:38;4.07;;;2.42;;
21501;SDS011;27639;48.674;9.242;2023-05-07T09:49:07;3.95;;;2.65;;
21501;SDS011;27639;48.674;9.242;2023-05-07T09:51:45;4.35;;;2.47;;
21501;SDS011;27639;48.674;9.242;2023-05-07T09:54:14;4.47;;;2.42;;
21501;SDS011;27639;48.674;9.242;2023-05-07T09:56:42;3.17;;;1.95;;
21501;SDS011;27639;48.674;9.242;2023-05-07T09:59:08;3.63;;;2.13;;
21501;SDS011;27639;48.674;9.242;2023-05-07T10:01:37;3.70;;;2.00;;
21501;SDS011;27639;48.674;9.242;2023-05-07T10:04:05;3.65;;;2.10;;
21501;SDS011;27639;48.674;9.242;2023-05-07T10:06:33;3.85;;;2.05;;
21501;SDS011;27639;48.674;9.242;2023-05-07T10:08:59;4.22;;;2.20;;
21501;SDS011;27639;48.674;9.242;2023-05-07T10:11:25;3.53;;;2.20;;
21501;SDS011;27639;48.674;9.242;2023-05-07T10:13:52;3.55;;;2.03;;
21501;SDS011;27639;48.674;9.242;2023-05-07T10:16:18;3.47;;;2.13;;
21501;SDS011;27639;48.674;9.242;2023-05-07T10:18:44;3.47;;;1.95;;
21501;SDS011;27639;48.674;9.242;2023-05-07T10:21:11;3.67;;;2.20;;
21501;SDS011;27639;48.674;9.242;2023-05-07T10:23:49;3.50;;;2.20;;
21501;SDS011;27639;48.674;9.242;2023-05-07T10:26:25;4.60;;;2.03;;
21501;SDS011;27639;48.674;9.242;2023-05-07T10:28:55;4.85;;;2.40;;
21501;SDS011;27639;48.674;9.242;2023-05-07T10:34:21;4.13;;;2.40;;
21501;SDS011;27639;48.674;9.242;2023-05-07T10:36:51;3.30;;;2.00;;
21501;SDS011;27639;48.674;9.242;2023-05-07T10:39:19;4.10;;;2.10;;
21501;SDS011;27639;48.674;9.242;2023-05-07T10:41:45;4.15;;;2.50;;
21501;SDS011;27639;48.674;9.242;2023-05-07T10:44:11;3.67;;;2.40;;
21501;SDS011;27639;48.674;9.242;2023-05-07T10:46:36;3.90;;;2.10;;
21501;SDS011;27639;48.674;9.242;2023-05-07T10:51:29;3.70;;;2.40;;
21501;SDS011;27639;48.674;9.242;2023-05-07T10:54:29;3.72;;;2.42;;
21501;SDS011;27639;48.674;9.242;2023-05-07T10:56:48;4.03;;;2.10;;
21501;SDS011;27639;48.674;9.242;2023-05-07T11:01:58;5.13;;;2.40;;
21501;SDS011;27639;48.674;9.242;2023-05-07T11:04:24;4.65;;;2.28;;
21501;SDS011;27639;48.674;9.242;2023-05-07T11:15:01;3.97;;;2.45;;
21501;SDS011;27639;48.674;9.242;2023-05-07T11:17:34;5.47;;;2.40;;
21501;SDS011;27639;48.674;9.242;2023-05-07T11:20:17;4.57;;;2.35;;
21501;SDS011;27639;48.674;9.242;2023-05-07T11:22:43;5.45;;;2.50;;
21501;SDS011;27639;48.674;9.242;2023-05-07T11:25:08;5.28;;;2.53;;
21501;SDS011;27639;48.674;9.242;2023-05-07T11:27:34;3.95;;;2.20;;
21501;SDS011;27639;48.674;9.242;2023-05-07T11:30:00;4.13;;;2.13;;
21501;SDS011;27639;48.674;9.242;2023-05-07T11:32:26;4.78;;;2.22;;
21501;SDS011;27639;48.674;9.242;2023-05-07T11:34:57;5.10;;;2.40;;
21501;SDS011;27639;48.674;9.242;2023-05-07T11:37:24;3.25;;;2.28;;
21501;SDS011;27639;48.674;9.242;2023-05-07T11:39:52;3.60;;;2.17;;
21501;SDS011;27639;48.674;9.242;2023-05-07T11:42:33;4.10;;;2.22;;
21501;SDS011;27639;48.674;9.242;2023-05-07T11:45:00;4.22;;;2.25;;
21501;SDS011;27639;48.674;9.242;2023-05-07T11:47:29;4.60;;;2.25;;
21501;SDS011;27639;48.674;9.242;2023-05-07T11:49:55;3.97;;;2.13;;
21501;SDS011;27639;48.674;9.242;2023-05-07T11:52:22;5.07;;;2.15;;
21501;SDS011;27639;48.674;9.242;2023-05-07T11:54:52;4.07;;;2.13;;
21501;SDS011;27639;48.674;9.242;2023-05-07T11:57:20;4.95;;;2.47;;
21501;SDS011;27639;48.674;9.242;2023-05-07T11:59:46;3.20;;;1.90;;
21501;SDS011;27639;48.674;9.242;2023-05-07T12:02:16;4.60;;;1.92;;
21501;SDS011;27639;48.674;9.242;2023-05-07T12:04:43;2.83;;;1.70;;
21501;SDS011;27639;48.674;9.242;2023-05-07T12:07:12;4.72;;;2.05;;
21501;SDS011;27639;48.674;9.242;2023-05-07T12:09:38;4.30;;;2.10;;
21501;SDS011;27639;48.674;9.242;2023-05-07T12:12:05;3.65;;;2.05;;
21501;SDS011;27639;48.674;9.242;2023-05-07T12:14:31;3.78;;;1.90;;
21501;SDS011;27639;48.674;9.242;2023-05-07T12:16:57;5.30;;;2.00;;
21501;SDS011;27639;48.674;9.242;2023-05-07T12:19:28;3.20;;;1.77;;
21501;SDS011;27639;48.674;9.242;2023-05-07T12:21:55;4.05;;;2.13;;
21501;SDS011;27639;48.674;9.242;2023-05-07T12:24:21;3.53;;;1.80;;
21501;SDS011;27639;48.674;9.242;2023-05-07T12:26:47;2.88;;;1.60;;
21501;SDS011;27639;48.674;9.242;2023-05-07T12:29:13;3.92;;;1.55;;
21501;SDS011;27639;48.674;9.242;2023-05-07T12:31:42;5.53;;;1.63;;
21501;SDS011;27639;48.674;9.242;2023-05-07T12:34:10;5.78;;;1.60;;
21501;SDS011;27639;48.674;9.242;2023-05-07T12:36:39;2.63;;;1.45;;
21501;SDS011;27639;48.674;9.242;2023-05-07T12:39:06;3.28;;;1.40;;
21501;SDS011;27639;48.674;9.242;2023-05-07T12:41:35;3.80;;;1.38;;
21501;SDS011;27639;48.674;9.242;2023-05-07T12:44:22;5.68;;;1.38;;
21501;SDS011;27639;48.674;9.242;2023-05-07T12:46:48;2.55;;;1.30;;
21501;SDS011;27639;48.674;9.242;2023-05-07T12:49:15;3.65;;;1.90;;
21501;SDS011;27639;48.674;9.242;2023-05-07T12:51:40;4.43;;;1.90;;
21501;SDS011;27639;48.674;9.242;2023-05-07T12:54:06;5.13;;;1.88;;
21501;SDS011;27639;48.674;9.242;2023-05-07T12:56:31;4.13;;;1.50;;
21501;SDS011;27639;48.674;9.242;2023-05-07T12:59:00;3.78;;;1.45;;
21501;SDS011;27639;48.674;9.242;2023-05-07T13:01:29;4.30;;;1.40;;
21501;SDS011;27639;48.674;9.242;2023-05-07T13:03:56;3.45;;;1.40;;
21501;SDS011;27639;48.674;9.242;2023-05-07T13:06:25;2.70;;;1.30;;
21501;SDS011;27639;48.674;9.242;2023-05-07T13:08:51;2.55;;;1.08;;
21501;SDS011;27639;48.674;9.242;2023-05-07T13:11:16;2.60;;;1.10;;
21501;SDS011;27639;48.674;9.242;2023-05-07T13:13:42;2.35;;;1.00;;
21501;SDS011;27639;48.674;9.242;2023-05-07T13:16:08;4.00;;;1.20;;
21501;SDS011;27639;48.674;9.242;2023-05-07T13:18:35;3.33;;;1.10;;
21501;SDS011;27639;48.674;9.242;2023-05-07T13:21:02;3.40;;;1.38;;
21501;SDS011;27639;48.674;9.242;2023-05-07T13:23:28;3.05;;;1.27;;
21501;SDS011;27639;48.674;9.242;2023-05-07T13:25:54;3.22;;;1.40;;
21501;SDS011;27639;48.674;9.242;2023-05-07T13:28:20;4.45;;;1.50;;
21501;SDS011;27639;48.674;9.242;2023-05-07T13:30:46;3.35;;;1.30;;
21501;SDS011;27639;48.674;9.242;2023-05-07T13:33:12;4.38;;;1.30;;
21501;SDS011;27639;48.674;9.242;2023-05-07T13:35:38;3.95;;;1.50;;
21501;SDS011;27639;48.674;9.242;2023-05-07T13:38:04;3.40;;;1.27;;
21501;SDS011;27639;48.674;9.242;2023-05-07T13:40:30;6.40;;;1.73;;
21501;SDS011;27639;48.674;9.242;2023-05-07T13:42:56;4.55;;;2.10;;
21501;SDS011;27639;48.674;9.242;2023-05-07T13:45:23;3.20;;;1.52;;
21501;SDS011;27639;48.674;9.242;2023-05-07T13:47:50;4.40;;;1.60;;
21501;SDS011;27639;48.674;9.242;2023-05-07T13:50:16;6.18;;;2.15;;
21501;SDS011;27639;48.674;9.242;2023-05-07T13:52:42;7.38;;;2.95;;
21501;SDS011;27639;48.674;9.242;2023-05-07T13:55:15;6.95;;;3.20;;
21501;SDS011;27639;48.674;9.242;2023-05-07T13:57:44;6.85;;;2.30;;
21501;SDS011;27639;48.674;9.242;2023-05-07T14:00:11;4.85;;;1.90;;
21501;SDS011;27639;48.674;9.242;2023-05-07T14:02:37;4.57;;;1.83;;
21501;SDS011;27639;48.674;9.242;2023-05-07T14:05:03;4.50;;;1.90;;
21501;SDS011;27639;48.674;9.242;2023-05-07T14:07:28;3.95;;;1.92;;
21501;SDS011;27639;48.674;9.242;2023-05-07T14:09:54;4.13;;;2.17;;
21501;SDS011;27639;48.674;9.242;2023-05-07T14:12:20;4.88;;;2.25;;
21501;SDS011;27639;48.674;9.242;2023-05-07T14:14:46;6.10;;;2.80;;
21501;SDS011;27639;48.674;9.242;2023-05-07T14:17:11;6.72;;;4.22;;
21501;SDS011;27639;48.674;9.242;2023-05-07T14:19:37;5.38;;;3.00;;
21501;SDS011;27639;48.674;9.242;2023-05-07T14:22:03;6.78;;;2.63;;
21501;SDS011;27639;48.674;9.242;2023-05-07T14:24:28;6.15;;;2.40;;
21501;SDS011;27639;48.674;9.242;2023-05-07T14:26:54;5.88;;;2.75;;
21501;SDS011;27639;48.674;9.242;2023-05-07T14:29:20;6.85;;;2.63;;
21501;SDS011;27639;48.674;9.242;2023-05-07T14:31:45;6.40;;;3.75;;
21501;SDS011;27639;48.674;9.242;2023-05-07T14:34:11;7.22;;;4.55;;
21501;SDS011;27639;48.674;9.242;2023-05-07T14:36:36;5.18;;;3.00;;
21501;SDS011;27639;48.674;9.242;2023-05-07T14:39:03;5.95;;;3.20;;
21501;SDS011;27639;48.674;9.242;2023-05-07T14:41:28;4.82;;;2.78;;
21501;SDS011;27639;48.674;9.242;2023-05-07T14:43:54;5.55;;;3.17;;
21501;SDS011;27639;48.674;9.242;2023-05-07T14:46:20;7.22;;;3.15;;
21501;SDS011;27639;48.674;9.242;2023-05-07T14:48:45;6.30;;;3.00;;
21501;SDS011;27639;48.674;9.242;2023-05-07T14:51:11;8.98;;;2.85;;
21501;SDS011;27639;48.674;9.242;2023-05-07T14:53:38;7.00;;;2.75;;
21501;SDS011;27639;48.674;9.242;2023-05-07T14:56:04;5.00;;;2.20;;
21501;SDS011;27639;48.674;9.242;2023-05-07T14:58:30;4.63;;;2.60;;
21501;SDS011;27639;48.674;9.242;2023-05-07T15:00:56;6.18;;;3.33;;